sensor_id;sensor_type;location;lat;lon;timestamp;P1;durP1;ratioP1;P2;durP2;ratioP2
13660;SDS011;6903;49.480;11.102;2024-01-15T00:02:00;15.17;;;7.20;;
13660;SDS011;6903;49.480;11.102;2024-01-15T00:04:25;29.73;;;9.73;;
13660;SDS011;6903;49.480;11.102;2024-01-15T00:06:50;24.90;;;9.13;;
13660;SDS011;6903;49.480;11.102;2024-01-15T00:09:15;23.07;;;9.10;;
13660;SDS011;6903;49.480;11.102;2024-01-15T00:11:41;26.10;;;10.37;;
13660;SDS011;6903;49.480;11.102;2024-01-15T00:14:06;24.30;;;9.33;;
13660;SDS011;6903;49.480;11.102;2024-01-15T00:16:31;29.77;;;9.13;;
13660;SDS011;6903;49.480;11.102;2024-01-15T00:18:56;20.57;;;8.23;;
13660;SDS011;6903;49.480;11.102;2024-01-15T00:21:21;17.13;;;8.03;;
13660;SDS011;6903;49.480;11.102;2024-01-15T00:23:47;19.07;;;6.87;;
13660;SDS011;6903;49.480;11.102;2024-01-15T00:26:12;24.67;;;9.93;;
13660;SDS011;6903;49.480;11.102;2024-01-15T00:28:37;20.70;;;7.07;;
13660;SDS011;6903;49.480;11.102;2024-01-15T00:31:03;16.40;;;5.77;;
13660;SDS011;6903;49.480;11.102;2024-01-15T00:33:29;34.33;;;9.67;;
13660;SDS011;6903;49.480;11.102;2024-01-15T00:35:54;23.00;;;9.60;;
13660;SDS011;6903;49.480;11.102;2024-01-15T00:38:19;21.43;;;9.63;;
13660;SDS011;6903;49.480;11.102;2024-01-15T00:40:45;21.27;;;9.23;;
13660;SDS011;6903;49.480;11.102;2024-01-15T00:43:10;25.07;;;9.27;;
13660;SDS011;6903;49.480;11.102;2024-01-15T00:45:35;30.50;;;10.17;;
13660;SDS011;6903;49.480;11.102;2024-01-15T00:48:00;20.60;;;7.87;;
13660;SDS011;6903;49.480;11.102;2024-01-15T00:50:26;25.80;;;8.73;;
13660;SDS011;6903;49.480;11.102;2024-01-15T00:52:51;22.43;;;7.60;;
13660;SDS011;6903;49.480;11.102;2024-01-15T00:55:16;34.10;;;10.53;;
13660;SDS011;6903;49.480;11.102;2024-01-15T00:57:41;24.27;;;8.53;;
13660;SDS011;6903;49.480;11.102;2024-01-15T01:00:07;23.60;;;10.00;;
13660;SDS011;6903;49.480;11.102;2024-01-15T01:02:32;23.87;;;9.00;;
13660;SDS011;6903;49.480;11.102;2024-01-15T01:04:57;15.87;;;7.20;;
13660;SDS011;6903;49.480;11.102;2024-01-15T01:07:23;23.33;;;8.57;;
13660;SDS011;6903;49.480;11.102;2024-01-15T01:09:48;35.77;;;11.47;;
13660;SDS011;6903;49.480;11.102;2024-01-15T01:12:14;20.60;;;8.40;;
13660;SDS011;6903;49.480;11.102;2024-01-15T01:14:39;27.60;;;9.37;;
13660;SDS011;6903;49.480;11.102;2024-01-15T01:17:04;22.33;;;8.03;;
13660;SDS011;6903;49.480;11.102;2024-01-15T01:19:29;30.67;;;9.43;;
13660;SDS011;6903;49.480;11.102;2024-01-15T01:21:55;20.47;;;8.30;;
13660;SDS011;6903;49.480;11.102;2024-01-15T01:24:20;22.50;;;8.63;;
13660;SDS011;6903;49.480;11.102;2024-01-15T01:26:45;29.47;;;9.17;;
13660;SDS011;6903;49.480;11.102;2024-01-15T01:29:11;19.20;;;7.73;;
13660;SDS011;6903;49.480;11.102;2024-01-15T01:31:41;24.70;;;9.80;;
13660;SDS011;6903;49.480;11.102;2024-01-15T01:34:07;28.13;;;9.80;;
13660;SDS011;6903;49.480;11.102;2024-01-15T01:36:32;17.53;;;7.40;;
13660;SDS011;6903;49.480;11.102;2024-01-15T01:38:57;30.93;;;10.00;;
13660;SDS011;6903;49.480;11.102;2024-01-15T01:41:22;32.90;;;10.07;;
13660;SDS011;6903;49.480;11.102;2024-01-15T01:43:49;24.10;;;9.57;;
13660;SDS011;6903;49.480;11.102;2024-01-15T01:46:14;22.60;;;8.03;;
13660;SDS011;6903;49.480;11.102;2024-01-15T01:48:40;23.57;;;8.87;;
13660;SDS011;6903;49.480;11.102;2024-01-15T01:51:05;29.03;;;8.10;;
13660;SDS011;6903;49.480;11.102;2024-01-15T01:53:31;22.90;;;9.37;;
13660;SDS011;6903;49.480;11.102;2024-01-15T01:55:57;24.97;;;10.87;;
13660;SDS011;6903;49.480;11.102;2024-01-15T01:58:22;25.60;;;9.73;;
13660;SDS011;6903;49.480;11.102;2024-01-15T02:00:47;24.23;;;9.20;;
13660;SDS011;6903;49.480;11.102;2024-01-15T02:03:13;24.10;;;8.37;;
13660;SDS011;6903;49.480;11.102;2024-01-15T02:05:39;18.63;;;8.73;;
13660;SDS011;6903;49.480;11.102;2024-01-15T02:08:04;19.03;;;8.67;;
13660;SDS011;6903;49.480;11.102;2024-01-15T02:10:29;24.20;;;9.43;;
13660;SDS011;6903;49.480;11.102;2024-01-15T02:12:55;25.97;;;8.47;;
13660;SDS011;6903;49.480;11.102;2024-01-15T02:15:20;24.80;;;8.53;;
13660;SDS011;6903;49.480;11.102;2024-01-15T02:17:58;24.67;;;8.97;;
13660;SDS011;6903;49.480;11.102;2024-01-15T02:20:23;23.80;;;8.53;;
13660;SDS011;6903;49.480;11.102;2024-01-15T02:22:48;23.57;;;8.00;;
13660;SDS011;6903;49.480;11.102;2024-01-15T02:25:14;21.57;;;7.90;;
13660;SDS011;6903;49.480;11.102;2024-01-15T02:27:39;26.27;;;8.77;;
13660;SDS011;6903;49.480;11.102;2024-01-15T02:30:04;23.53;;;8.10;;
13660;SDS011;6903;49.480;11.102;2024-01-15T02:32:31;17.53;;;7.27;;
13660;SDS011;6903;49.480;11.102;2024-01-15T02:34:56;29.43;;;8.97;;
13660;SDS011;6903;49.480;11.102;2024-01-15T02:37:21;17.40;;;7.50;;
13660;SDS011;6903;49.480;11.102;2024-01-15T02:39:47;18.37;;;8.23;;
13660;SDS011;6903;49.480;11.102;2024-01-15T02:42:12;16.43;;;7.10;;
13660;SDS011;6903;49.480;11.102;2024-01-15T02:44:37;22.37;;;8.10;;
13660;SDS011;6903;49.480;11.102;2024-01-15T02:47:02;22.40;;;7.90;;
13660;SDS011;6903;49.480;11.102;2024-01-15T02:49:27;25.07;;;7.67;;
13660;SDS011;6903;49.480;11.102;2024-01-15T02:51:53;23.47;;;8.93;;
13660;SDS011;6903;49.480;11.102;2024-01-15T02:54:18;22.60;;;8.50;;
13660;SDS011;6903;49.480;11.102;2024-01-15T02:56:43;19.50;;;7.50;;
13660;SDS011;6903;49.480;11.102;2024-01-15T02:59:08;25.43;;;8.37;;
13660;SDS011;6903;49.480;11.102;2024-01-15T03:01:33;21.43;;;8.03;;
13660;SDS011;6903;49.480;11.102;2024-01-15T03:03:58;18.63;;;7.20;;
13660;SDS011;6903;49.480;11.102;2024-01-15T03:06:24;20.00;;;7.80;;
13660;SDS011;6903;49.480;11.102;2024-01-15T03:08:49;12.17;;;6.30;;
13660;SDS011;6903;49.480;11.102;2024-01-15T03:11:14;19.27;;;6.63;;
13660;SDS011;6903;49.480;11.102;2024-01-15T03:13:39;19.20;;;7.37;;
13660;SDS011;6903;49.480;11.102;2024-01-15T03:16:05;16.93;;;6.73;;
13660;SDS011;6903;49.480;11.102;2024-01-15T03:18:30;19.87;;;7.93;;
13660;SDS011;6903;49.480;11.102;2024-01-15T03:20:55;17.10;;;7.20;;
13660;SDS011;6903;49.480;11.102;2024-01-15T03:23:20;22.60;;;7.07;;
13660;SDS011;6903;49.480;11.102;2024-01-15T03:25:45;14.67;;;6.13;;
13660;SDS011;6903;49.480;11.102;2024-01-15T03:28:11;15.37;;;6.93;;
13660;SDS011;6903;49.480;11.102;2024-01-15T03:30:36;18.53;;;5.37;;
13660;SDS011;6903;49.480;11.102;2024-01-15T03:33:01;17.60;;;6.50;;
13660;SDS011;6903;49.480;11.102;2024-01-15T03:35:26;16.40;;;6.13;;
13660;SDS011;6903;49.480;11.102;2024-01-15T03:37:54;18.80;;;6.77;;
13660;SDS011;6903;49.480;11.102;2024-01-15T03:40:19;15.70;;;6.47;;
13660;SDS011;6903;49.480;11.102;2024-01-15T03:42:44;18.77;;;6.23;;
13660;SDS011;6903;49.480;11.102;2024-01-15T03:45:09;11.93;;;5.57;;
13660;SDS011;6903;49.480;11.102;2024-01-15T03:47:35;16.47;;;6.17;;
13660;SDS011;6903;49.480;11.102;2024-01-15T03:50:00;18.10;;;7.07;;
13660;SDS011;6903;49.480;11.102;2024-01-15T03:52:25;15.47;;;6.73;;
13660;SDS011;6903;49.480;11.102;2024-01-15T03:54:50;14.13;;;6.10;;
13660;SDS011;6903;49.480;11.102;2024-01-15T03:57:15;14.47;;;6.07;;
13660;SDS011;6903;49.480;11.102;2024-01-15T03:59:41;14.90;;;6.20;;
13660;SDS011;6903;49.480;11.102;2024-01-15T04:02:06;20.70;;;6.93;;
13660;SDS011;6903;49.480;11.102;2024-01-15T04:04:31;17.60;;;6.43;;
13660;SDS011;6903;49.480;11.102;2024-01-15T04:06:57;12.77;;;5.67;;
13660;SDS011;6903;49.480;11.102;2024-01-15T04:09:22;14.43;;;6.50;;
13660;SDS011;6903;49.480;11.102;2024-01-15T04:11:47;17.03;;;6.07;;
13660;SDS011;6903;49.480;11.102;2024-01-15T04:14:12;17.30;;;5.87;;
13660;SDS011;6903;49.480;11.102;2024-01-15T04:16:38;13.13;;;5.73;;
13660;SDS011;6903;49.480;11.102;2024-01-15T04:19:03;14.87;;;6.47;;
13660;SDS011;6903;49.480;11.102;2024-01-15T04:21:28;12.00;;;4.93;;
13660;SDS011;6903;49.480;11.102;2024-01-15T04:23:53;13.30;;;5.63;;
13660;SDS011;6903;49.480;11.102;2024-01-15T04:26:18;11.07;;;5.97;;
13660;SDS011;6903;49.480;11.102;2024-01-15T04:28:43;13.40;;;5.63;;
13660;SDS011;6903;49.480;11.102;2024-01-15T04:31:09;12.63;;;4.93;;
13660;SDS011;6903;49.480;11.102;2024-01-15T04:33:34;13.37;;;5.40;;
13660;SDS011;6903;49.480;11.102;2024-01-15T04:36:03;11.30;;;4.70;;
13660;SDS011;6903;49.480;11.102;2024-01-15T04:38:28;13.23;;;6.37;;
13660;SDS011;6903;49.480;11.102;2024-01-15T04:40:53;12.90;;;6.40;;
13660;SDS011;6903;49.480;11.102;2024-01-15T04:43:19;20.37;;;7.30;;
13660;SDS011;6903;49.480;11.102;2024-01-15T04:45:44;12.63;;;5.77;;
13660;SDS011;6903;49.480;11.102;2024-01-15T04:48:09;16.83;;;5.63;;
13660;SDS011;6903;49.480;11.102;2024-01-15T04:50:34;17.53;;;6.47;;
13660;SDS011;6903;49.480;11.102;2024-01-15T04:52:59;17.63;;;6.07;;
13660;SDS011;6903;49.480;11.102;2024-01-15T04:55:24;13.53;;;5.10;;
13660;SDS011;6903;49.480;11.102;2024-01-15T04:57:50;14.97;;;6.73;;
13660;SDS011;6903;49.480;11.102;2024-01-15T05:00:15;15.90;;;6.37;;
13660;SDS011;6903;49.480;11.102;2024-01-15T05:02:40;17.13;;;6.70;;
13660;SDS011;6903;49.480;11.102;2024-01-15T05:05:05;12.50;;;5.93;;
13660;SDS011;6903;49.480;11.102;2024-01-15T05:07:31;16.73;;;5.87;;
13660;SDS011;6903;49.480;11.102;2024-01-15T05:09:56;17.07;;;6.77;;
13660;SDS011;6903;49.480;11.102;2024-01-15T05:12:22;19.43;;;6.60;;
13660;SDS011;6903;49.480;11.102;2024-01-15T05:14:47;14.97;;;6.13;;
13660;SDS011;6903;49.480;11.102;2024-01-15T05:17:12;16.47;;;6.67;;
13660;SDS011;6903;49.480;11.102;2024-01-15T05:19:37;18.17;;;7.07;;
13660;SDS011;6903;49.480;11.102;2024-01-15T05:22:03;20.97;;;6.67;;
13660;SDS011;6903;49.480;11.102;2024-01-15T05:24:28;14.87;;;6.13;;
13660;SDS011;6903;49.480;11.102;2024-01-15T05:26:53;13.60;;;5.80;;
13660;SDS011;6903;49.480;11.102;2024-01-15T05:29:18;20.67;;;7.00;;
13660;SDS011;6903;49.480;11.102;2024-01-15T05:31:43;11.93;;;6.07;;
13660;SDS011;6903;49.480;11.102;2024-01-15T05:34:09;15.13;;;5.63;;
13660;SDS011;6903;49.480;11.102;2024-01-15T05:36:34;10.93;;;4.90;;
13660;SDS011;6903;49.480;11.102;2024-01-15T05:38:59;13.87;;;6.00;;
13660;SDS011;6903;49.480;11.102;2024-01-15T05:41:24;15.70;;;7.23;;
13660;SDS011;6903;49.480;11.102;2024-01-15T05:43:49;16.60;;;6.00;;
13660;SDS011;6903;49.480;11.102;2024-01-15T05:46:16;15.63;;;5.27;;
13660;SDS011;6903;49.480;11.102;2024-01-15T05:48:41;17.00;;;6.47;;
13660;SDS011;6903;49.480;11.102;2024-01-15T05:51:06;13.70;;;6.07;;
13660;SDS011;6903;49.480;11.102;2024-01-15T05:53:31;18.80;;;6.37;;
13660;SDS011;6903;49.480;11.102;2024-01-15T05:55:56;18.07;;;6.20;;
13660;SDS011;6903;49.480;11.102;2024-01-15T05:58:21;14.97;;;5.53;;
13660;SDS011;6903;49.480;11.102;2024-01-15T06:00:47;12.40;;;5.57;;
13660;SDS011;6903;49.480;11.102;2024-01-15T06:03:13;12.30;;;4.67;;
13660;SDS011;6903;49.480;11.102;2024-01-15T06:05:38;15.67;;;5.90;;
13660;SDS011;6903;49.480;11.102;2024-01-15T06:08:03;15.50;;;6.23;;
13660;SDS011;6903;49.480;11.102;2024-01-15T06:10:28;27.77;;;6.57;;
13660;SDS011;6903;49.480;11.102;2024-01-15T06:12:54;13.07;;;5.60;;
13660;SDS011;6903;49.480;11.102;2024-01-15T06:15:19;14.20;;;5.63;;
13660;SDS011;6903;49.480;11.102;2024-01-15T06:17:44;14.83;;;6.13;;
13660;SDS011;6903;49.480;11.102;2024-01-15T06:20:09;11.33;;;5.17;;
13660;SDS011;6903;49.480;11.102;2024-01-15T06:22:35;12.63;;;5.73;;
13660;SDS011;6903;49.480;11.102;2024-01-15T06:25:01;15.07;;;6.20;;
13660;SDS011;6903;49.480;11.102;2024-01-15T06:27:26;17.67;;;6.43;;
13660;SDS011;6903;49.480;11.102;2024-01-15T06:29:51;11.10;;;5.20;;
13660;SDS011;6903;49.480;11.102;2024-01-15T06:32:17;17.53;;;5.17;;
13660;SDS011;6903;49.480;11.102;2024-01-15T06:34:42;13.50;;;5.93;;
13660;SDS011;6903;49.480;11.102;2024-01-15T06:37:07;14.40;;;6.03;;
13660;SDS011;6903;49.480;11.102;2024-01-15T06:39:32;14.17;;;5.83;;
13660;SDS011;6903;49.480;11.102;2024-01-15T06:41:57;14.43;;;5.73;;
13660;SDS011;6903;49.480;11.102;2024-01-15T06:44:22;11.00;;;4.53;;
13660;SDS011;6903;49.480;11.102;2024-01-15T06:46:48;15.10;;;5.77;;
13660;SDS011;6903;49.480;11.102;2024-01-15T06:49:13;12.00;;;5.50;;
13660;SDS011;6903;49.480;11.102;2024-01-15T06:51:38;11.27;;;5.23;;
13660;SDS011;6903;49.480;11.102;2024-01-15T06:54:04;11.10;;;4.83;;
13660;SDS011;6903;49.480;11.102;2024-01-15T06:56:29;15.50;;;6.47;;
13660;SDS011;6903;49.480;11.102;2024-01-15T06:58:54;16.77;;;6.43;;
13660;SDS011;6903;49.480;11.102;2024-01-15T07:01:19;16.20;;;5.07;;
13660;SDS011;6903;49.480;11.102;2024-01-15T07:03:45;15.37;;;6.43;;
13660;SDS011;6903;49.480;11.102;2024-01-15T07:06:10;14.47;;;5.93;;
13660;SDS011;6903;49.480;11.102;2024-01-15T07:08:35;10.23;;;4.77;;
13660;SDS011;6903;49.480;11.102;2024-01-15T07:11:03;15.87;;;6.33;;
13660;SDS011;6903;49.480;11.102;2024-01-15T07:13:28;17.83;;;6.43;;
13660;SDS011;6903;49.480;11.102;2024-01-15T07:15:54;12.43;;;6.17;;
13660;SDS011;6903;49.480;11.102;2024-01-15T07:18:19;16.27;;;6.23;;
13660;SDS011;6903;49.480;11.102;2024-01-15T07:20:44;11.07;;;5.57;;
13660;SDS011;6903;49.480;11.102;2024-01-15T07:23:09;15.80;;;5.37;;
13660;SDS011;6903;49.480;11.102;2024-01-15T07:25:34;12.70;;;5.57;;
13660;SDS011;6903;49.480;11.102;2024-01-15T07:27:59;9.33;;;5.20;;
13660;SDS011;6903;49.480;11.102;2024-01-15T07:30:25;11.27;;;4.47;;
13660;SDS011;6903;49.480;11.102;2024-01-15T07:32:50;15.90;;;6.00;;
13660;SDS011;6903;49.480;11.102;2024-01-15T07:35:16;12.87;;;6.27;;
13660;SDS011;6903;49.480;11.102;2024-01-15T07:37:42;15.37;;;5.43;;
13660;SDS011;6903;49.480;11.102;2024-01-15T07:40:07;11.50;;;4.80;;
13660;SDS011;6903;49.480;11.102;2024-01-15T07:42:33;15.53;;;5.60;;
13660;SDS011;6903;49.480;11.102;2024-01-15T07:44:59;10.43;;;5.23;;
13660;SDS011;6903;49.480;11.102;2024-01-15T07:47:24;9.03;;;4.70;;
13660;SDS011;6903;49.480;11.102;2024-01-15T07:49:49;10.90;;;4.23;;
13660;SDS011;6903;49.480;11.102;2024-01-15T07:52:15;13.77;;;5.03;;
13660;SDS011;6903;49.480;11.102;2024-01-15T07:54:40;18.27;;;6.13;;
13660;SDS011;6903;49.480;11.102;2024-01-15T07:57:05;10.57;;;5.10;;
13660;SDS011;6903;49.480;11.102;2024-01-15T07:59:31;11.97;;;4.90;;
13660;SDS011;6903;49.480;11.102;2024-01-15T08:01:56;11.27;;;5.30;;
13660;SDS011;6903;49.480;11.102;2024-01-15T08:04:21;10.27;;;5.13;;
13660;SDS011;6903;49.480;11.102;2024-01-15T08:06:49;12.87;;;5.73;;
13660;SDS011;6903;49.480;11.102;2024-01-15T08:09:14;8.13;;;4.47;;
13660;SDS011;6903;49.480;11.102;2024-01-15T08:11:40;17.47;;;6.50;;
13660;SDS011;6903;49.480;11.102;2024-01-15T08:14:06;17.20;;;5.57;;
13660;SDS011;6903;49.480;11.102;2024-01-15T08:16:31;14.97;;;5.73;;
13660;SDS011;6903;49.480;11.102;2024-01-15T08:18:57;13.93;;;5.47;;
13660;SDS011;6903;49.480;11.102;2024-01-15T08:21:22;16.03;;;5.37;;
13660;SDS011;6903;49.480;11.102;2024-01-15T08:23:47;11.80;;;5.40;;
13660;SDS011;6903;49.480;11.102;2024-01-15T08:26:12;14.80;;;6.60;;
13660;SDS011;6903;49.480;11.102;2024-01-15T08:28:37;14.80;;;5.90;;
13660;SDS011;6903;49.480;11.102;2024-01-15T08:31:03;11.13;;;5.97;;
13660;SDS011;6903;49.480;11.102;2024-01-15T08:33:28;13.37;;;5.70;;
13660;SDS011;6903;49.480;11.102;2024-01-15T08:35:53;14.90;;;5.80;;
13660;SDS011;6903;49.480;11.102;2024-01-15T08:38:19;15.17;;;5.90;;
13660;SDS011;6903;49.480;11.102;2024-01-15T08:40:44;15.07;;;5.87;;
13660;SDS011;6903;49.480;11.102;2024-01-15T08:43:09;10.43;;;5.43;;
13660;SDS011;6903;49.480;11.102;2024-01-15T08:45:34;13.63;;;6.30;;
13660;SDS011;6903;49.480;11.102;2024-01-15T08:48:00;15.20;;;6.43;;
13660;SDS011;6903;49.480;11.102;2024-01-15T08:50:26;18.43;;;6.33;;
13660;SDS011;6903;49.480;11.102;2024-01-15T08:52:51;14.80;;;5.93;;
13660;SDS011;6903;49.480;11.102;2024-01-15T08:55:16;12.97;;;6.53;;
13660;SDS011;6903;49.480;11.102;2024-01-15T08:57:41;13.40;;;5.40;;
13660;SDS011;6903;49.480;11.102;2024-01-15T09:00:07;16.67;;;5.20;;
13660;SDS011;6903;49.480;11.102;2024-01-15T09:02:35;14.27;;;6.13;;
13660;SDS011;6903;49.480;11.102;2024-01-15T09:05:01;12.33;;;5.93;;
13660;SDS011;6903;49.480;11.102;2024-01-15T09:07:26;12.60;;;5.97;;
13660;SDS011;6903;49.480;11.102;2024-01-15T09:09:52;13.30;;;6.03;;
13660;SDS011;6903;49.480;11.102;2024-01-15T09:12:17;14.63;;;6.33;;
13660;SDS011;6903;49.480;11.102;2024-01-15T09:14:43;17.93;;;5.87;;
13660;SDS011;6903;49.480;11.102;2024-01-15T09:17:08;16.03;;;5.90;;
13660;SDS011;6903;49.480;11.102;2024-01-15T09:19:34;11.90;;;5.17;;
13660;SDS011;6903;49.480;11.102;2024-01-15T09:21:59;11.47;;;6.20;;
13660;SDS011;6903;49.480;11.102;2024-01-15T09:24:24;9.90;;;5.13;;
13660;SDS011;6903;49.480;11.102;2024-01-15T09:26:49;14.40;;;6.17;;
13660;SDS011;6903;49.480;11.102;2024-01-15T09:29:14;13.20;;;5.80;;
13660;SDS011;6903;49.480;11.102;2024-01-15T09:31:41;10.47;;;4.90;;
13660;SDS011;6903;49.480;11.102;2024-01-15T09:34:06;14.50;;;6.00;;
13660;SDS011;6903;49.480;11.102;2024-01-15T09:36:31;12.97;;;4.70;;
13660;SDS011;6903;49.480;11.102;2024-01-15T09:38:57;11.67;;;5.47;;
13660;SDS011;6903;49.480;11.102;2024-01-15T09:41:22;14.00;;;5.90;;
13660;SDS011;6903;49.480;11.102;2024-01-15T09:43:48;14.33;;;5.60;;
13660;SDS011;6903;49.480;11.102;2024-01-15T09:46:13;13.70;;;5.57;;
13660;SDS011;6903;49.480;11.102;2024-01-15T09:48:39;14.23;;;6.53;;
13660;SDS011;6903;49.480;11.102;2024-01-15T09:51:05;10.40;;;4.93;;
13660;SDS011;6903;49.480;11.102;2024-01-15T09:53:31;14.67;;;6.00;;
13660;SDS011;6903;49.480;11.102;2024-01-15T09:55:57;15.13;;;6.53;;
13660;SDS011;6903;49.480;11.102;2024-01-15T09:58:23;9.53;;;4.90;;
13660;SDS011;6903;49.480;11.102;2024-01-15T10:00:48;11.63;;;6.10;;
13660;SDS011;6903;49.480;11.102;2024-01-15T10:03:15;14.67;;;6.07;;
13660;SDS011;6903;49.480;11.102;2024-01-15T10:05:40;10.77;;;4.37;;
13660;SDS011;6903;49.480;11.102;2024-01-15T10:08:05;11.53;;;5.43;;
13660;SDS011;6903;49.480;11.102;2024-01-15T10:10:31;10.17;;;5.47;;
13660;SDS011;6903;49.480;11.102;2024-01-15T10:12:57;10.47;;;5.23;;
13660;SDS011;6903;49.480;11.102;2024-01-15T10:15:23;11.73;;;5.57;;
13660;SDS011;6903;49.480;11.102;2024-01-15T10:17:49;8.43;;;4.60;;
13660;SDS011;6903;49.480;11.102;2024-01-15T10:20:14;9.83;;;4.40;;
13660;SDS011;6903;49.480;11.102;2024-01-15T10:22:40;11.13;;;5.27;;
13660;SDS011;6903;49.480;11.102;2024-01-15T10:25:05;13.50;;;5.80;;
13660;SDS011;6903;49.480;11.102;2024-01-15T10:27:30;7.30;;;4.10;;
13660;SDS011;6903;49.480;11.102;2024-01-15T10:29:59;9.73;;;4.80;;
13660;SDS011;6903;49.480;11.102;2024-01-15T10:32:24;9.53;;;4.80;;
13660;SDS011;6903;49.480;11.102;2024-01-15T10:34:50;10.90;;;4.70;;
13660;SDS011;6903;49.480;11.102;2024-01-15T10:37:17;9.73;;;4.63;;
13660;SDS011;6903;49.480;11.102;2024-01-15T10:39:42;10.03;;;5.03;;
13660;SDS011;6903;49.480;11.102;2024-01-15T10:42:07;9.67;;;4.67;;
13660;SDS011;6903;49.480;11.102;2024-01-15T10:44:33;12.80;;;5.30;;
13660;SDS011;6903;49.480;11.102;2024-01-15T10:46:59;9.27;;;5.00;;
13660;SDS011;6903;49.480;11.102;2024-01-15T10:49:24;9.37;;;5.23;;
13660;SDS011;6903;49.480;11.102;2024-01-15T10:51:52;7.90;;;4.50;;
13660;SDS011;6903;49.480;11.102;2024-01-15T10:54:17;13.00;;;4.83;;
13660;SDS011;6903;49.480;11.102;2024-01-15T10:56:42;10.93;;;5.50;;
13660;SDS011;6903;49.480;11.102;2024-01-15T10:59:08;10.13;;;5.50;;
13660;SDS011;6903;49.480;11.102;2024-01-15T11:01:35;10.97;;;5.47;;
13660;SDS011;6903;49.480;11.102;2024-01-15T11:04:01;11.83;;;5.23;;
13660;SDS011;6903;49.480;11.102;2024-01-15T11:06:27;9.27;;;4.93;;
13660;SDS011;6903;49.480;11.102;2024-01-15T11:08:53;11.27;;;5.03;;
13660;SDS011;6903;49.480;11.102;2024-01-15T11:11:20;9.33;;;5.10;;
13660;SDS011;6903;49.480;11.102;2024-01-15T11:13:46;11.63;;;4.97;;
13660;SDS011;6903;49.480;11.102;2024-01-15T11:16:12;12.77;;;4.97;;
13660;SDS011;6903;49.480;11.102;2024-01-15T11:18:38;11.43;;;4.77;;
13660;SDS011;6903;49.480;11.102;2024-01-15T11:23:42;10.20;;;5.07;;
13660;SDS011;6903;49.480;11.102;2024-01-15T11:26:26;9.93;;;5.23;;
13660;SDS011;6903;49.480;11.102;2024-01-15T11:28:51;9.43;;;5.10;;
13660;SDS011;6903;49.480;11.102;2024-01-15T11:31:16;10.77;;;5.40;;
13660;SDS011;6903;49.480;11.102;2024-01-15T11:33:47;11.23;;;4.43;;
13660;SDS011;6903;49.480;11.102;2024-01-15T11:36:12;13.10;;;5.60;;
13660;SDS011;6903;49.480;11.102;2024-01-15T11:38:38;10.13;;;5.23;;
13660;SDS011;6903;49.480;11.102;2024-01-15T11:41:07;9.40;;;4.87;;
13660;SDS011;6903;49.480;11.102;2024-01-15T11:43:38;8.87;;;4.63;;
13660;SDS011;6903;49.480;11.102;2024-01-15T11:46:03;9.83;;;4.23;;
13660;SDS011;6903;49.480;11.102;2024-01-15T11:48:29;9.77;;;4.30;;
13660;SDS011;6903;49.480;11.102;2024-01-15T11:51:00;11.00;;;4.70;;
13660;SDS011;6903;49.480;11.102;2024-01-15T11:53:34;10.83;;;5.10;;
13660;SDS011;6903;49.480;11.102;2024-01-15T11:56:01;12.10;;;5.03;;
13660;SDS011;6903;49.480;11.102;2024-01-15T11:58:27;10.63;;;4.67;;
13660;SDS011;6903;49.480;11.102;2024-01-15T12:00:52;11.57;;;5.10;;
13660;SDS011;6903;49.480;11.102;2024-01-15T12:03:20;9.27;;;4.20;;
13660;SDS011;6903;49.480;11.102;2024-01-15T12:05:45;9.10;;;4.73;;
13660;SDS011;6903;49.480;11.102;2024-01-15T12:08:10;10.83;;;4.83;;
13660;SDS011;6903;49.480;11.102;2024-01-15T12:10:36;8.43;;;4.37;;
13660;SDS011;6903;49.480;11.102;2024-01-15T12:15:28;9.47;;;4.80;;
13660;SDS011;6903;49.480;11.102;2024-01-15T12:17:57;12.20;;;4.60;;
13660;SDS011;6903;49.480;11.102;2024-01-15T12:20:23;6.10;;;3.80;;
13660;SDS011;6903;49.480;11.102;2024-01-15T12:22:48;9.60;;;4.67;;
13660;SDS011;6903;49.480;11.102;2024-01-15T12:25:13;9.57;;;4.53;;
13660;SDS011;6903;49.480;11.102;2024-01-15T12:27:38;7.97;;;4.27;;
13660;SDS011;6903;49.480;11.102;2024-01-15T12:30:03;12.37;;;4.87;;
13660;SDS011;6903;49.480;11.102;2024-01-15T12:32:29;10.13;;;5.80;;
13660;SDS011;6903;49.480;11.102;2024-01-15T12:34:54;9.47;;;4.70;;
13660;SDS011;6903;49.480;11.102;2024-01-15T12:37:20;11.17;;;5.10;;
13660;SDS011;6903;49.480;11.102;2024-01-15T12:39:45;9.30;;;4.60;;
13660;SDS011;6903;49.480;11.102;2024-01-15T12:42:10;8.87;;;4.57;;
13660;SDS011;6903;49.480;11.102;2024-01-15T12:44:36;8.63;;;4.30;;
13660;SDS011;6903;49.480;11.102;2024-01-15T12:47:03;8.90;;;4.17;;
13660;SDS011;6903;49.480;11.102;2024-01-15T12:49:28;7.00;;;4.47;;
13660;SDS011;6903;49.480;11.102;2024-01-15T12:51:54;9.57;;;4.80;;
13660;SDS011;6903;49.480;11.102;2024-01-15T12:54:19;10.60;;;4.20;;
13660;SDS011;6903;49.480;11.102;2024-01-15T12:56:44;6.03;;;4.27;;
13660;SDS011;6903;49.480;11.102;2024-01-15T12:59:09;8.23;;;4.50;;
13660;SDS011;6903;49.480;11.102;2024-01-15T13:01:35;7.13;;;4.53;;
13660;SDS011;6903;49.480;11.102;2024-01-15T13:04:01;9.60;;;3.90;;
13660;SDS011;6903;49.480;11.102;2024-01-15T13:06:26;8.03;;;3.93;;
13660;SDS011;6903;49.480;11.102;2024-01-15T13:08:51;7.53;;;4.07;;
13660;SDS011;6903;49.480;11.102;2024-01-15T13:11:16;10.13;;;4.20;;
13660;SDS011;6903;49.480;11.102;2024-01-15T13:13:42;7.43;;;3.83;;
13660;SDS011;6903;49.480;11.102;2024-01-15T13:16:08;8.97;;;5.10;;
13660;SDS011;6903;49.480;11.102;2024-01-15T13:18:34;6.60;;;3.93;;
13660;SDS011;6903;49.480;11.102;2024-01-15T13:20:59;9.67;;;4.10;;
13660;SDS011;6903;49.480;11.102;2024-01-15T13:23:25;8.10;;;4.00;;
13660;SDS011;6903;49.480;11.102;2024-01-15T13:25:50;7.87;;;4.17;;
13660;SDS011;6903;49.480;11.102;2024-01-15T13:28:15;7.20;;;4.43;;
13660;SDS011;6903;49.480;11.102;2024-01-15T13:30:41;6.63;;;3.77;;
13660;SDS011;6903;49.480;11.102;2024-01-15T13:33:06;6.37;;;4.30;;
13660;SDS011;6903;49.480;11.102;2024-01-15T13:35:31;7.60;;;3.53;;
13660;SDS011;6903;49.480;11.102;2024-01-15T13:37:57;6.97;;;4.37;;
13660;SDS011;6903;49.480;11.102;2024-01-15T13:40:22;6.77;;;3.60;;
13660;SDS011;6903;49.480;11.102;2024-01-15T13:42:48;6.77;;;3.77;;
13660;SDS011;6903;49.480;11.102;2024-01-15T13:45:13;8.10;;;3.53;;
13660;SDS011;6903;49.480;11.102;2024-01-15T13:47:39;7.50;;;4.30;;
13660;SDS011;6903;49.480;11.102;2024-01-15T13:50:05;8.43;;;3.23;;
13660;SDS011;6903;49.480;11.102;2024-01-15T13:52:30;8.33;;;4.30;;
13660;SDS011;6903;49.480;11.102;2024-01-15T13:54:55;6.83;;;4.13;;
13660;SDS011;6903;49.480;11.102;2024-01-15T13:57:21;7.40;;;3.80;;
13660;SDS011;6903;49.480;11.102;2024-01-15T13:59:47;9.23;;;3.87;;
13660;SDS011;6903;49.480;11.102;2024-01-15T14:02:14;8.13;;;3.90;;
13660;SDS011;6903;49.480;11.102;2024-01-15T14:04:39;7.70;;;4.10;;
13660;SDS011;6903;49.480;11.102;2024-01-15T14:07:04;5.70;;;3.07;;
13660;SDS011;6903;49.480;11.102;2024-01-15T14:09:30;8.20;;;4.10;;
13660;SDS011;6903;49.480;11.102;2024-01-15T14:11:56;9.43;;;4.07;;
13660;SDS011;6903;49.480;11.102;2024-01-15T14:14:21;6.77;;;3.73;;
13660;SDS011;6903;49.480;11.102;2024-01-15T14:16:47;6.50;;;3.17;;
13660;SDS011;6903;49.480;11.102;2024-01-15T14:19:12;6.73;;;3.97;;
13660;SDS011;6903;49.480;11.102;2024-01-15T14:21:37;8.43;;;3.87;;
13660;SDS011;6903;49.480;11.102;2024-01-15T14:24:03;7.37;;;3.37;;
13660;SDS011;6903;49.480;11.102;2024-01-15T14:26:28;7.00;;;4.20;;
13660;SDS011;6903;49.480;11.102;2024-01-15T14:28:54;7.63;;;3.60;;
13660;SDS011;6903;49.480;11.102;2024-01-15T14:31:19;8.40;;;3.77;;
13660;SDS011;6903;49.480;11.102;2024-01-15T14:33:45;5.80;;;3.50;;